sensor_id;sensor_type;location;lat;lon;timestamp;P1;durP1;ratioP1;P2;durP2;ratioP2
40847;SDS011;26570;50.962;5.340;2022-07-04T00:00:28;4.13;;;0.43;;
40847;SDS011;26570;50.962;5.340;2022-07-04T00:03:12;1.07;;;0.40;;
40847;SDS011;26570;50.962;5.340;2022-07-04T00:05:57;1.33;;;0.40;;
40847;SDS011;26570;50.962;5.340;2022-07-04T00:08:42;4.50;;;0.50;;
40847;SDS011;26570;50.962;5.340;2022-07-04T00:11:26;1.83;;;0.30;;
40847;SDS011;26570;50.962;5.340;2022-07-04T00:14:11;1.93;;;0.40;;
40847;SDS011;26570;50.962;5.340;2022-07-04T00:16:56;2.50;;;0.30;;
40847;SDS011;26570;50.962;5.340;2022-07-04T00:19:41;1.70;;;0.30;;
40847;SDS011;26570;50.962;5.340;2022-07-04T00:22:25;3.20;;;0.30;;
40847;SDS011;26570;50.962;5.340;2022-07-04T00:25:10;3.27;;;0.40;;
40847;SDS011;26570;50.962;5.340;2022-07-04T00:27:55;2.30;;;0.37;;
40847;SDS011;26570;50.962;5.340;2022-07-04T00:30:40;1.00;;;0.30;;
40847;SDS011;26570;50.962;5.340;2022-07-04T00:33:24;2.70;;;0.30;;
40847;SDS011;26570;50.962;5.340;2022-07-04T00:36:18;1.88;;;0.40;;
40847;SDS011;26570;50.962;5.340;2022-07-04T00:39:21;1.50;;;0.40;;
40847;SDS011;26570;50.962;5.340;2022-07-04T00:42:06;1.90;;;0.47;;
40847;SDS011;26570;50.962;5.340;2022-07-04T00:44:51;1.80;;;0.30;;
40847;SDS011;26570;50.962;5.340;2022-07-04T00:47:36;0.90;;;0.30;;
40847;SDS011;26570;50.962;5.340;2022-07-04T00:50:20;1.27;;;0.30;;
40847;SDS011;26570;50.962;5.340;2022-07-04T00:53:06;2.13;;;0.30;;
40847;SDS011;26570;50.962;5.340;2022-07-04T00:55:51;1.47;;;0.40;;
40847;SDS011;26570;50.962;5.340;2022-07-04T00:58:36;1.27;;;0.40;;
40847;SDS011;26570;50.962;5.340;2022-07-04T01:01:22;3.70;;;0.40;;
40847;SDS011;26570;50.962;5.340;2022-07-04T01:04:07;2.77;;;0.30;;
40847;SDS011;26570;50.962;5.340;2022-07-04T01:06:52;1.53;;;0.40;;
40847;SDS011;26570;50.962;5.340;2022-07-04T01:09:37;3.67;;;0.30;;
40847;SDS011;26570;50.962;5.340;2022-07-04T01:12:28;3.90;;;0.40;;
40847;SDS011;26570;50.962;5.340;2022-07-04T01:15:14;1.20;;;0.70;;
40847;SDS011;26570;50.962;5.340;2022-07-04T01:17:59;0.93;;;0.40;;
40847;SDS011;26570;50.962;5.340;2022-07-04T01:20:45;1.23;;;0.40;;
40847;SDS011;26570;50.962;5.340;2022-07-04T01:23:30;2.47;;;0.37;;
40847;SDS011;26570;50.962;5.340;2022-07-04T01:26:15;1.03;;;0.30;;
40847;SDS011;26570;50.962;5.340;2022-07-04T01:29:00;1.00;;;0.30;;
40847;SDS011;26570;50.962;5.340;2022-07-04T01:31:45;2.47;;;0.40;;
40847;SDS011;26570;50.962;5.340;2022-07-04T01:34:30;1.17;;;0.33;;
40847;SDS011;26570;50.962;5.340;2022-07-04T01:37:14;1.03;;;0.30;;
40847;SDS011;26570;50.962;5.340;2022-07-04T01:39:59;1.60;;;0.43;;
40847;SDS011;26570;50.962;5.340;2022-07-04T01:42:44;0.70;;;0.40;;
40847;SDS011;26570;50.962;5.340;2022-07-04T01:45:29;0.50;;;0.20;;
40847;SDS011;26570;50.962;5.340;2022-07-04T01:48:13;1.37;;;0.30;;
40847;SDS011;26570;50.962;5.340;2022-07-04T01:50:58;2.37;;;0.50;;
40847;SDS011;26570;50.962;5.340;2022-07-04T01:53:43;0.90;;;0.40;;
40847;SDS011;26570;50.962;5.340;2022-07-04T01:56:28;3.77;;;1.30;;
40847;SDS011;26570;50.962;5.340;2022-07-04T01:59:13;2.33;;;0.50;;
40847;SDS011;26570;50.962;5.340;2022-07-04T02:01:58;4.50;;;0.50;;
40847;SDS011;26570;50.962;5.340;2022-07-04T02:04:42;2.87;;;0.60;;
40847;SDS011;26570;50.962;5.340;2022-07-04T02:07:27;1.20;;;0.60;;
40847;SDS011;26570;50.962;5.340;2022-07-04T02:10:12;4.80;;;0.50;;
40847;SDS011;26570;50.962;5.340;2022-07-04T02:12:56;3.47;;;0.50;;
40847;SDS011;26570;50.962;5.340;2022-07-04T02:15:47;1.87;;;0.63;;
40847;SDS011;26570;50.962;5.340;2022-07-04T02:18:32;4.20;;;1.20;;
40847;SDS011;26570;50.962;5.340;2022-07-04T02:21:17;4.27;;;0.70;;
40847;SDS011;26570;50.962;5.340;2022-07-04T02:24:02;1.57;;;0.80;;
40847;SDS011;26570;50.962;5.340;2022-07-04T02:26:47;1.73;;;0.60;;
40847;SDS011;26570;50.962;5.340;2022-07-04T02:29:32;1.87;;;0.70;;
40847;SDS011;26570;50.962;5.340;2022-07-04T02:32:17;2.20;;;1.17;;
40847;SDS011;26570;50.962;5.340;2022-07-04T02:35:03;1.67;;;0.60;;
40847;SDS011;26570;50.962;5.340;2022-07-04T02:37:48;3.10;;;0.60;;
40847;SDS011;26570;50.962;5.340;2022-07-04T02:40:34;1.33;;;0.50;;
40847;SDS011;26570;50.962;5.340;2022-07-04T02:43:19;2.37;;;0.50;;
40847;SDS011;26570;50.962;5.340;2022-07-04T02:46:03;1.00;;;0.60;;
40847;SDS011;26570;50.962;5.340;2022-07-04T02:48:48;2.90;;;0.60;;
40847;SDS011;26570;50.962;5.340;2022-07-04T02:51:33;1.50;;;0.70;;
40847;SDS011;26570;50.962;5.340;2022-07-04T02:54:18;1.30;;;0.40;;
40847;SDS011;26570;50.962;5.340;2022-07-04T02:57:03;3.07;;;0.40;;
40847;SDS011;26570;50.962;5.340;2022-07-04T02:59:47;1.17;;;0.50;;
40847;SDS011;26570;50.962;5.340;2022-07-04T03:02:32;1.50;;;0.53;;
40847;SDS011;26570;50.962;5.340;2022-07-04T03:05:17;1.60;;;0.60;;
40847;SDS011;26570;50.962;5.340;2022-07-04T03:08:02;2.70;;;0.53;;
40847;SDS011;26570;50.962;5.340;2022-07-04T03:10:48;2.70;;;0.67;;
40847;SDS011;26570;50.962;5.340;2022-07-04T03:13:36;2.40;;;0.70;;
40847;SDS011;26570;50.962;5.340;2022-07-04T03:16:21;2.23;;;0.60;;
40847;SDS011;26570;50.962;5.340;2022-07-04T03:19:05;2.93;;;0.60;;
40847;SDS011;26570;50.962;5.340;2022-07-04T03:21:50;7.03;;;0.90;;
40847;SDS011;26570;50.962;5.340;2022-07-04T03:24:35;2.40;;;0.60;;
40847;SDS011;26570;50.962;5.340;2022-07-04T03:27:20;2.53;;;0.60;;
40847;SDS011;26570;50.962;5.340;2022-07-04T03:30:05;3.10;;;0.70;;
40847;SDS011;26570;50.962;5.340;2022-07-04T03:32:50;1.97;;;0.77;;
40847;SDS011;26570;50.962;5.340;2022-07-04T03:35:34;2.80;;;0.70;;
40847;SDS011;26570;50.962;5.340;2022-07-04T03:38:19;6.43;;;0.80;;
40847;SDS011;26570;50.962;5.340;2022-07-04T03:41:04;4.87;;;0.67;;
40847;SDS011;26570;50.962;5.340;2022-07-04T03:43:49;2.83;;;0.60;;
40847;SDS011;26570;50.962;5.340;2022-07-04T03:46:34;2.03;;;1.00;;
40847;SDS011;26570;50.962;5.340;2022-07-04T03:49:18;2.27;;;0.70;;
40847;SDS011;26570;50.962;5.340;2022-07-04T03:52:03;2.03;;;0.70;;
40847;SDS011;26570;50.962;5.340;2022-07-04T03:54:48;2.40;;;0.80;;
40847;SDS011;26570;50.962;5.340;2022-07-04T03:57:33;5.77;;;0.80;;
40847;SDS011;26570;50.962;5.340;2022-07-04T04:00:17;3.73;;;0.87;;
40847;SDS011;26570;50.962;5.340;2022-07-04T04:03:02;2.67;;;0.83;;
40847;SDS011;26570;50.962;5.340;2022-07-04T04:06:07;3.43;;;1.00;;
40847;SDS011;26570;50.962;5.340;2022-07-04T04:08:51;6.73;;;1.10;;
40847;SDS011;26570;50.962;5.340;2022-07-04T04:11:36;3.43;;;0.90;;
40847;SDS011;26570;50.962;5.340;2022-07-04T04:14:21;1.90;;;0.73;;
40847;SDS011;26570;50.962;5.340;2022-07-04T04:17:07;1.83;;;0.93;;
40847;SDS011;26570;50.962;5.340;2022-07-04T04:19:52;1.20;;;0.70;;
40847;SDS011;26570;50.962;5.340;2022-07-04T04:22:37;3.20;;;2.27;;
40847;SDS011;26570;50.962;5.340;2022-07-04T04:25:22;6.47;;;2.00;;
40847;SDS011;26570;50.962;5.340;2022-07-04T04:28:06;3.17;;;1.30;;
40847;SDS011;26570;50.962;5.340;2022-07-04T04:30:51;4.40;;;1.47;;
40847;SDS011;26570;50.962;5.340;2022-07-04T04:33:36;5.47;;;1.40;;
40847;SDS011;26570;50.962;5.340;2022-07-04T04:36:21;7.57;;;1.33;;
40847;SDS011;26570;50.962;5.340;2022-07-04T04:39:05;5.30;;;1.43;;
40847;SDS011;26570;50.962;5.340;2022-07-04T04:41:50;3.43;;;1.43;;
40847;SDS011;26570;50.962;5.340;2022-07-04T04:44:35;5.70;;;1.83;;
40847;SDS011;26570;50.962;5.340;2022-07-04T04:47:19;4.93;;;2.97;;
40847;SDS011;26570;50.962;5.340;2022-07-04T04:50:04;6.33;;;2.87;;
40847;SDS011;26570;50.962;5.340;2022-07-04T04:52:50;5.40;;;3.23;;
40847;SDS011;26570;50.962;5.340;2022-07-04T04:55:34;6.73;;;2.30;;
40847;SDS011;26570;50.962;5.340;2022-07-04T04:58:19;11.60;;;2.90;;
40847;SDS011;26570;50.962;5.340;2022-07-04T05:01:05;7.40;;;2.63;;
40847;SDS011;26570;50.962;5.340;2022-07-04T05:03:50;11.27;;;3.83;;
40847;SDS011;26570;50.962;5.340;2022-07-04T05:06:35;6.77;;;3.27;;
40847;SDS011;26570;50.962;5.340;2022-07-04T05:09:19;5.67;;;3.77;;
40847;SDS011;26570;50.962;5.340;2022-07-04T05:12:05;6.90;;;3.90;;
40847;SDS011;26570;50.962;5.340;2022-07-04T05:14:49;4.40;;;2.53;;
40847;SDS011;26570;50.962;5.340;2022-07-04T05:17:34;8.93;;;4.10;;
40847;SDS011;26570;50.962;5.340;2022-07-04T05:20:19;7.57;;;4.67;;
40847;SDS011;26570;50.962;5.340;2022-07-04T05:23:04;12.10;;;4.33;;
40847;SDS011;26570;50.962;5.340;2022-07-04T05:25:49;6.73;;;3.80;;
40847;SDS011;26570;50.962;5.340;2022-07-04T05:28:34;6.00;;;3.47;;
40847;SDS011;26570;50.962;5.340;2022-07-04T05:31:18;11.43;;;3.87;;
40847;SDS011;26570;50.962;5.340;2022-07-04T05:34:03;7.70;;;2.93;;
40847;SDS011;26570;50.962;5.340;2022-07-04T05:36:48;10.27;;;3.17;;
40847;SDS011;26570;50.962;5.340;2022-07-04T05:39:51;8.10;;;2.13;;
40847;SDS011;26570;50.962;5.340;2022-07-04T05:42:39;6.87;;;1.80;;
40847;SDS011;26570;50.962;5.340;2022-07-04T05:45:24;3.90;;;1.50;;
40847;SDS011;26570;50.962;5.340;2022-07-04T05:48:09;6.53;;;1.17;;
40847;SDS011;26570;50.962;5.340;2022-07-04T05:50:54;3.90;;;1.27;;
40847;SDS011;26570;50.962;5.340;2022-07-04T05:53:38;4.37;;;0.70;;
40847;SDS011;26570;50.962;5.340;2022-07-04T05:56:23;2.03;;;0.60;;
40847;SDS011;26570;50.962;5.340;2022-07-04T05:59:08;1.97;;;0.63;;
40847;SDS011;26570;50.962;5.340;2022-07-04T06:01:53;4.83;;;0.60;;
40847;SDS011;26570;50.962;5.340;2022-07-04T06:04:38;4.10;;;0.50;;
40847;SDS011;26570;50.962;5.340;2022-07-04T06:07:22;2.45;;;0.50;;
40847;SDS011;26570;50.962;5.340;2022-07-04T06:10:07;6.30;;;0.50;;
40847;SDS011;26570;50.962;5.340;2022-07-04T06:12:53;4.68;;;0.30;;
40847;SDS011;26570;50.962;5.340;2022-07-04T06:15:38;1.50;;;0.25;;
40847;SDS011;26570;50.962;5.340;2022-07-04T06:18:23;5.85;;;0.40;;
40847;SDS011;26570;50.962;5.340;2022-07-04T06:21:07;4.45;;;0.30;;
40847;SDS011;26570;50.962;5.340;2022-07-04T06:23:52;5.15;;;0.40;;
40847;SDS011;26570;50.962;5.340;2022-07-04T06:26:37;1.60;;;0.30;;
40847;SDS011;26570;50.962;5.340;2022-07-04T06:29:22;3.22;;;0.30;;
40847;SDS011;26570;50.962;5.340;2022-07-04T06:32:06;2.75;;;0.20;;
40847;SDS011;26570;50.962;5.340;2022-07-04T06:34:51;6.68;;;0.40;;
40847;SDS011;26570;50.962;5.340;2022-07-04T06:37:54;2.33;;;0.25;;
40847;SDS011;26570;50.962;5.340;2022-07-04T06:40:39;1.92;;;0.30;;
40847;SDS011;26570;50.962;5.340;2022-07-04T06:43:26;1.65;;;0.20;;
40847;SDS011;26570;50.962;5.340;2022-07-04T06:46:10;1.58;;;0.20;;
40847;SDS011;26570;50.962;5.340;2022-07-04T06:48:54;3.15;;;0.30;;
40847;SDS011;26570;50.962;5.340;2022-07-04T06:51:39;2.65;;;0.20;;
40847;SDS011;26570;50.962;5.340;2022-07-04T06:54:24;3.17;;;0.40;;
40847;SDS011;26570;50.962;5.340;2022-07-04T06:57:09;3.45;;;0.20;;
40847;SDS011;26570;50.962;5.340;2022-07-04T06:59:55;3.03;;;0.20;;
40847;SDS011;26570;50.962;5.340;2022-07-04T07:02:40;1.50;;;0.20;;
40847;SDS011;26570;50.962;5.340;2022-07-04T07:05:26;1.15;;;0.20;;
40847;SDS011;26570;50.962;5.340;2022-07-04T07:08:11;1.65;;;0.20;;
40847;SDS011;26570;50.962;5.340;2022-07-04T07:10:55;2.88;;;0.20;;
40847;SDS011;26570;50.962;5.340;2022-07-04T07:13:42;1.40;;;0.17;;
40847;SDS011;26570;50.962;5.340;2022-07-04T07:16:28;3.13;;;0.10;;
40847;SDS011;26570;50.962;5.340;2022-07-04T07:19:12;2.42;;;0.20;;
40847;SDS011;26570;50.962;5.340;2022-07-04T07:21:57;3.42;;;0.20;;
40847;SDS011;26570;50.962;5.340;2022-07-04T07:24:41;1.63;;;0.20;;
40847;SDS011;26570;50.962;5.340;2022-07-04T07:27:26;4.53;;;0.20;;
40847;SDS011;26570;50.962;5.340;2022-07-04T07:30:11;4.60;;;0.20;;
40847;SDS011;26570;50.962;5.340;2022-07-04T07:32:56;3.92;;;0.17;;
40847;SDS011;26570;50.962;5.340;2022-07-04T07:35:40;5.63;;;0.25;;
40847;SDS011;26570;50.962;5.340;2022-07-04T07:38:25;4.65;;;0.30;;
40847;SDS011;26570;50.962;5.340;2022-07-04T07:41:10;3.30;;;0.28;;
40847;SDS011;26570;50.962;5.340;2022-07-04T07:43:55;3.72;;;0.20;;
40847;SDS011;26570;50.962;5.340;2022-07-04T07:46:40;1.75;;;0.20;;
40847;SDS011;26570;50.962;5.340;2022-07-04T07:49:25;4.05;;;0.20;;
40847;SDS011;26570;50.962;5.340;2022-07-04T07:52:10;1.48;;;0.20;;
40847;SDS011;26570;50.962;5.340;2022-07-04T07:54:55;1.75;;;0.10;;
40847;SDS011;26570;50.962;5.340;2022-07-04T07:57:39;1.77;;;0.10;;
40847;SDS011;26570;50.962;5.340;2022-07-04T08:00:24;3.03;;;0.20;;
40847;SDS011;26570;50.962;5.340;2022-07-04T08:03:09;3.25;;;0.40;;
40847;SDS011;26570;50.962;5.340;2022-07-04T08:06:13;1.40;;;0.10;;
40847;SDS011;26570;50.962;5.340;2022-07-04T08:08:59;4.18;;;0.20;;
40847;SDS011;26570;50.962;5.340;2022-07-04T08:11:44;1.52;;;0.20;;
40847;SDS011;26570;50.962;5.340;2022-07-04T08:14:29;2.55;;;0.20;;
40847;SDS011;26570;50.962;5.340;2022-07-04T08:17:14;0.98;;;0.10;;
40847;SDS011;26570;50.962;5.340;2022-07-04T08:19:59;1.92;;;0.10;;
40847;SDS011;26570;50.962;5.340;2022-07-04T08:22:43;2.05;;;0.20;;
40847;SDS011;26570;50.962;5.340;2022-07-04T08:25:29;1.90;;;0.10;;
40847;SDS011;26570;50.962;5.340;2022-07-04T08:28:13;5.43;;;0.20;;
40847;SDS011;26570;50.962;5.340;2022-07-04T08:30:58;2.05;;;0.10;;
40847;SDS011;26570;50.962;5.340;2022-07-04T08:33:43;2.47;;;0.10;;
40847;SDS011;26570;50.962;5.340;2022-07-04T08:36:29;1.02;;;0.10;;
40847;SDS011;26570;50.962;5.340;2022-07-04T08:39:13;1.02;;;0.10;;
40847;SDS011;26570;50.962;5.340;2022-07-04T08:42:01;2.13;;;0.15;;
40847;SDS011;26570;50.962;5.340;2022-07-04T08:44:50;2.08;;;0.10;;
40847;SDS011;26570;50.962;5.340;2022-07-04T08:47:36;1.63;;;0.10;;
40847;SDS011;26570;50.962;5.340;2022-07-04T08:50:24;1.45;;;0.35;;
40847;SDS011;26570;50.962;5.340;2022-07-04T08:53:14;2.05;;;0.10;;
40847;SDS011;26570;50.962;5.340;2022-07-04T08:56:03;2.70;;;0.10;;
40847;SDS011;26570;50.962;5.340;2022-07-04T08:59:07;1.83;;;0.10;;
40847;SDS011;26570;50.962;5.340;2022-07-04T09:01:51;2.97;;;0.20;;
40847;SDS011;26570;50.962;5.340;2022-07-04T09:04:36;1.02;;;0.10;;
40847;SDS011;26570;50.962;5.340;2022-07-04T09:07:22;2.72;;;0.10;;
40847;SDS011;26570;50.962;5.340;2022-07-04T09:10:08;1.35;;;0.10;;
40847;SDS011;26570;50.962;5.340;2022-07-04T09:12:52;1.38;;;0.10;;
40847;SDS011;26570;50.962;5.340;2022-07-04T09:15:38;0.82;;;0.10;;
40847;SDS011;26570;50.962;5.340;2022-07-04T09:18:34;2.20;;;0.10;;
40847;SDS011;26570;50.962;5.340;2022-07-04T09:21:20;2.80;;;0.10;;
40847;SDS011;26570;50.962;5.340;2022-07-04T09:24:08;1.45;;;0.10;;
40847;SDS011;26570;50.962;5.340;2022-07-04T09:26:52;1.85;;;0.10;;
40847;SDS011;26570;50.962;5.340;2022-07-04T09:29:51;2.35;;;0.10;;
40847;SDS011;26570;50.962;5.340;2022-07-04T09:32:41;1.17;;;0.10;;
40847;SDS011;26570;50.962;5.340;2022-07-04T09:35:29;2.20;;;0.10;;
40847;SDS011;26570;50.962;5.340;2022-07-04T09:38:21;1.05;;;0.10;;
40847;SDS011;26570;50.962;5.340;2022-07-04T09:41:07;2.60;;;0.10;;
40847;SDS011;26570;50.962;5.340;2022-07-04T09:44:13;0.50;;;0.05;;
40847;SDS011;26570;50.962;5.340;2022-07-04T09:46:57;0.93;;;0.10;;
40847;SDS011;26570;50.962;5.340;2022-07-04T09:49:57;1.13;;;0.10;;
40847;SDS011;26570;50.962;5.340;2022-07-04T09:52:59;1.95;;;0.30;;
40847;SDS011;26570;50.962;5.340;2022-07-04T09:55:44;2.90;;;0.10;;
40847;SDS011;26570;50.962;5.340;2022-07-04T09:58:33;2.50;;;0.10;;
40847;SDS011;26570;50.962;5.340;2022-07-04T10:01:19;1.77;;;0.03;;
40847;SDS011;26570;50.962;5.340;2022-07-04T10:04:03;0.63;;;0.10;;
40847;SDS011;26570;50.962;5.340;2022-07-04T10:06:48;2.30;;;0.10;;
40847;SDS011;26570;50.962;5.340;2022-07-04T10:09:33;1.17;;;0.10;;
40847;SDS011;26570;50.962;5.340;2022-07-04T10:12:27;0.30;;;0.03;;
40847;SDS011;26570;50.962;5.340;2022-07-04T10:15:12;0.88;;;0.10;;
40847;SDS011;26570;50.962;5.340;2022-07-04T10:17:56;2.70;;;0.10;;
40847;SDS011;26570;50.962;5.340;2022-07-04T10:20:41;1.48;;;0.10;;
40847;SDS011;26570;50.962;5.340;2022-07-04T10:23:26;4.07;;;0.10;;
40847;SDS011;26570;50.962;5.340;2022-07-04T10:26:18;1.95;;;0.10;;
40847;SDS011;26570;50.962;5.340;2022-07-04T10:29:04;3.22;;;0.10;;
40847;SDS011;26570;50.962;5.340;2022-07-04T10:31:49;1.23;;;0.10;;
40847;SDS011;26570;50.962;5.340;2022-07-04T10:34:43;0.65;;;0.10;;
40847;SDS011;26570;50.962;5.340;2022-07-04T10:40:48;1.38;;;0.10;;
40847;SDS011;26570;50.962;5.340;2022-07-04T10:46:26;0.95;;;0.10;;
40847;SDS011;26570;50.962;5.340;2022-07-04T10:52:12;1.85;;;0.10;;
40847;SDS011;26570;50.962;5.340;2022-07-04T10:54:57;2.58;;;0.10;;
40847;SDS011;26570;50.962;5.340;2022-07-04T10:57:54;1.55;;;0.10;;
40847;SDS011;26570;50.962;5.340;2022-07-04T11:00:41;3.63;;;0.10;;
40847;SDS011;26570;50.962;5.340;2022-07-04T11:03:49;0.80;;;0.10;;
40847;SDS011;26570;50.962;5.340;2022-07-04T11:09:21;1.80;;;0.03;;
40847;SDS011;26570;50.962;5.340;2022-07-04T11:12:07;5.25;;;0.20;;
40847;SDS011;26570;50.962;5.340;2022-07-04T11:14:52;0.70;;;0.10;;
40847;SDS011;26570;50.962;5.340;2022-07-04T11:17:37;0.68;;;0.10;;
40847;SDS011;26570;50.962;5.340;2022-07-04T11:20:22;0.57;;;0.00;;
40847;SDS011;26570;50.962;5.340;2022-07-04T11:25:53;1.35;;;0.10;;
40847;SDS011;26570;50.962;5.340;2022-07-04T11:28:40;1.55;;;0.10;;
40847;SDS011;26570;50.962;5.340;2022-07-04T11:31:34;0.85;;;0.10;;
40847;SDS011;26570;50.962;5.340;2022-07-04T11:34:23;0.70;;;0.10;;
40847;SDS011;26570;50.962;5.340;2022-07-04T11:37:08;0.60;;;0.10;;
40847;SDS011;26570;50.962;5.340;2022-07-04T11:39:53;1.05;;;0.00;;
40847;SDS011;26570;50.962;5.340;2022-07-04T11:43:05;0.93;;;0.08;;
40847;SDS011;26570;50.962;5.340;2022-07-04T11:46:10;0.60;;;0.00;;
40847;SDS011;26570;50.962;5.340;2022-07-04T11:49:06;1.38;;;0.60;;
40847;SDS011;26570;50.962;5.340;2022-07-04T11:51:54;1.50;;;0.10;;
40847;SDS011;26570;50.962;5.340;2022-07-04T11:54:40;0.45;;;0.05;;
40847;SDS011;26570;50.962;5.340;2022-07-04T11:57:26;1.42;;;0.10;;
40847;SDS011;26570;50.962;5.340;2022-07-04T12:00:17;1.05;;;0.10;;
40847;SDS011;26570;50.962;5.340;2022-07-04T12:03:03;1.20;;;0.10;;
40847;SDS011;26570;50.962;5.340;2022-07-04T12:05:59;0.73;;;0.10;;
40847;SDS011;26570;50.962;5.340;2022-07-04T12:08:44;1.17;;;0.00;;
40847;SDS011;26570;50.962;5.340;2022-07-04T12:14:36;0.60;;;0.10;;
40847;SDS011;26570;50.962;5.340;2022-07-04T12:17:22;0.82;;;0.00;;
40847;SDS011;26570;50.962;5.340;2022-07-04T12:22:59;0.75;;;0.05;;
40847;SDS011;26570;50.962;5.340;2022-07-04T12:25:46;0.30;;;0.05;;
40847;SDS011;26570;50.962;5.340;2022-07-04T12:28:36;0.95;;;0.10;;
40847;SDS011;26570;50.962;5.340;2022-07-04T12:31:20;1.67;;;0.60;;
40847;SDS011;26570;50.962;5.340;2022-07-04T12:34:23;0.57;;;0.10;;
40847;SDS011;26570;50.962;5.340;2022-07-04T12:37:08;0.85;;;0.10;;
40847;SDS011;26570;50.962;5.340;2022-07-04T12:39:56;1.90;;;0.10;;
40847;SDS011;26570;50.962;5.340;2022-07-04T12:42:54;1.88;;;0.10;;
40847;SDS011;26570;50.962;5.340;2022-07-04T12:45:46;0.85;;;0.10;;
40847;SDS011;26570;50.962;5.340;2022-07-04T12:48:35;1.77;;;0.10;;
40847;SDS011;26570;50.962;5.340;2022-07-04T12:51:25;1.40;;;0.10;;
40847;SDS011;26570;50.962;5.340;2022-07-04T12:54:11;1.58;;;0.10;;
40847;SDS011;26570;50.962;5.340;2022-07-04T12:57:09;0.47;;;0.10;;
40847;SDS011;26570;50.962;5.340;2022-07-04T12:59:55;2.05;;;0.10;;
40847;SDS011;26570;50.962;5.340;2022-07-04T13:02:40;0.65;;;0.10;;
40847;SDS011;26570;50.962;5.340;2022-07-04T13:05:24;2.83;;;0.20;;
40847;SDS011;26570;50.962;5.340;2022-07-04T13:08:09;4.45;;;0.30;;
40847;SDS011;26570;50.962;5.340;2022-07-04T13:10:55;1.13;;;0.10;;
40847;SDS011;26570;50.962;5.340;2022-07-04T13:13:59;0.68;;;0.10;;
40847;SDS011;26570;50.962;5.340;2022-07-04T13:16:44;3.40;;;0.10;;
40847;SDS011;26570;50.962;5.340;2022-07-04T13:19:29;1.77;;;0.32;;
40847;SDS011;26570;50.962;5.340;2022-07-04T13:22:13;1.27;;;0.10;;
40847;SDS011;26570;50.962;5.340;2022-07-04T13:24:58;1.25;;;0.10;;
40847;SDS011;26570;50.962;5.340;2022-07-04T13:27:44;1.08;;;0.10;;
40847;SDS011;26570;50.962;5.340;2022-07-04T13:30:29;1.60;;;0.10;;
40847;SDS011;26570;50.962;5.340;2022-07-04T13:33:13;0.57;;;0.10;;
40847;SDS011;26570;50.962;5.340;2022-07-04T13:35:59;0.90;;;0.10;;
40847;SDS011;26570;50.962;5.340;2022-07-04T13:38:43;1.45;;;0.10;;
40847;SDS011;26570;50.962;5.340;2022-07-04T13:41:28;2.30;;;0.10;;
40847;SDS011;26570;50.962;5.340;2022-07-04T13:44:14;1.17;;;0.10;;
40847;SDS011;26570;50.962;5.340;2022-07-04T13:46:59;1.45;;;0.10;;
40847;SDS011;26570;50.962;5.340;2022-07-04T13:49:44;1.08;;;0.10;;
40847;SDS011;26570;50.962;5.340;2022-07-04T13:52:29;1.67;;;0.10;;
40847;SDS011;26570;50.962;5.340;2022-07-04T13:55:13;0.90;;;0.10;;
40847;SDS011;26570;50.962;5.340;2022-07-04T13:58:02;0.40;;;0.08;;
40847;SDS011;26570;50.962;5.340;2022-07-04T14:00:47;0.80;;;0.10;;
40847;SDS011;26570;50.962;5.340;2022-07-04T14:03:32;2.45;;;0.10;;
40847;SDS011;26570;50.962;5.340;2022-07-04T14:06:17;1.27;;;0.10;;
40847;SDS011;26570;50.962;5.340;2022-07-04T14:09:02;0.88;;;0.10;;
40847;SDS011;26570;50.962;5.340;2022-07-04T14:11:47;4.97;;;0.20;;
40847;SDS011;26570;50.962;5.340;2022-07-04T14:14:31;0.50;;;0.10;;
40847;SDS011;26570;50.962;5.340;2022-07-04T14:17:17;1.48;;;0.10;;
40847;SDS011;26570;50.962;5.340;2022-07-04T14:20:02;1.40;;;0.10;;
40847;SDS011;26570;50.962;5.340;2022-07-04T14:22:47;0.95;;;0.10;;
40847;SDS011;26570;50.962;5.340;2022-07-04T14:25:32;2.15;;;0.20;;
40847;SDS011;26570;50.962;5.340;2022-07-04T14:28:16;3.53;;;0.30;;
40847;SDS011;26570;50.962;5.340;2022-07-04T14:31:01;2.40;;;0.30;;
40847;SDS011;26570;50.962;5.340;2022-07-04T14:33:45;6.25;;;0.30;;
40847;SDS011;26570;50.962;5.340;2022-07-04T14:36:30;1.73;;;0.28;;
40847;SDS011;26570;50.962;5.340;2022-07-04T14:39:14;1.02;;;0.20;;
40847;SDS011;26570;50.962;5.340;2022-07-04T14:41:59;1.48;;;0.20;;
40847;SDS011;26570;50.962;5.340;2022-07-04T14:44:44;4.43;;;0.20;;
40847;SDS011;26570;50.962;5.340;2022-07-04T14:47:28;1.77;;;0.30;;
40847;SDS011;26570;50.962;5.340;2022-07-04T14:50:17;2.45;;;0.40;;
40847;SDS011;26570;50.962;5.340;2022-07-04T14:53:02;2.83;;;0.40;;
40847;SDS011;26570;50.962;5.340;2022-07-04T14:55:46;2.17;;;0.40;;
40847;SDS011;26570;50.962;5.340;2022-07-04T14:58:32;4.88;;;0.30;;
40847;SDS011;26570;50.962;5.340;2022-07-04T15:01:17;0.70;;;0.20;;
40847;SDS011;26570;50.962;5.340;2022-07-04T15:04:03;1.30;;;0.20;;
40847;SDS011;26570;50.962;5.340;2022-07-04T15:06:48;3.70;;;0.30;;
40847;SDS011;26570;50.962;5.340;2022-07-04T15:09:33;5.97;;;0.20;;
40847;SDS011;26570;50.962;5.340;2022-07-04T15:12:17;3.13;;;0.13;;
40847;SDS011;26570;50.962;5.340;2022-07-04T15:15:03;1.75;;;0.30;;
40847;SDS011;26570;50.962;5.340;2022-07-04T15:17:48;3.30;;;0.20;;
40847;SDS011;26570;50.962;5.340;2022-07-04T15:20:33;1.88;;;0.20;;
40847;SDS011;26570;50.962;5.340;2022-07-04T15:23:36;1.50;;;0.20;;
40847;SDS011;26570;50.962;5.340;2022-07-04T15:26:44;2.25;;;0.20;;
40847;SDS011;26570;50.962;5.340;2022-07-04T15:29:33;2.13;;;0.20;;
40847;SDS011;26570;50.962;5.340;2022-07-04T15:32:17;4.85;;;0.25;;
40847;SDS011;26570;50.962;5.340;2022-07-04T15:35:02;1.08;;;0.10;;
40847;SDS011;26570;50.962;5.340;2022-07-04T15:37:47;3.78;;;0.68;;
40847;SDS011;26570;50.962;5.340;2022-07-04T15:40:31;1.55;;;0.10;;
40847;SDS011;26570;50.962;5.340;2022-07-04T15:43:16;1.13;;;0.10;;
40847;SDS011;26570;50.962;5.340;2022-07-04T15:46:00;1.92;;;0.10;;
40847;SDS011;26570;50.962;5.340;2022-07-04T15:48:45;4.07;;;0.28;;
40847;SDS011;26570;50.962;5.340;2022-07-04T15:51:30;2.42;;;0.40;;
40847;SDS011;26570;50.962;5.340;2022-07-04T15:54:15;2.67;;;0.20;;
40847;SDS011;26570;50.962;5.340;2022-07-04T15:57:00;1.40;;;0.20;;
40847;SDS011;26570;50.962;5.340;2022-07-04T15:59:45;1.00;;;0.10;;
40847;SDS011;26570;50.962;5.340;2022-07-04T16:02:29;4.13;;;0.10;;
40847;SDS011;26570;50.962;5.340;2022-07-04T16:05:14;2.95;;;0.10;;
40847;SDS011;26570;50.962;5.340;2022-07-04T16:07:59;2.08;;;0.20;;
40847;SDS011;26570;50.962;5.340;2022-07-04T16:10:43;2.17;;;0.10;;
40847;SDS011;26570;50.962;5.340;2022-07-04T16:13:29;2.17;;;0.20;;
40847;SDS011;26570;50.962;5.340;2022-07-04T16:16:14;4.03;;;0.20;;
40847;SDS011;26570;50.962;5.340;2022-07-04T16:19:00;2.03;;;0.20;;
40847;SDS011;26570;50.962;5.340;2022-07-04T16:21:48;1.45;;;0.20;;
40847;SDS011;26570;50.962;5.340;2022-07-04T16:24:32;2.72;;;0.20;;
40847;SDS011;26570;50.962;5.340;2022-07-04T16:27:16;1.10;;;0.10;;
40847;SDS011;26570;50.962;5.340;2022-07-04T16:30:01;1.95;;;0.20;;
40847;SDS011;26570;50.962;5.340;2022-07-04T16:32:46;1.40;;;0.20;;
40847;SDS011;26570;50.962;5.340;2022-07-04T16:35:31;0.55;;;0.10;;
40847;SDS011;26570;50.962;5.340;2022-07-04T16:38:16;1.33;;;0.10;;
40847;SDS011;26570;50.962;5.340;2022-07-04T16:41:00;2.33;;;0.17;;
40847;SDS011;26570;50.962;5.340;2022-07-04T16:43:45;0.73;;;0.10;;
40847;SDS011;26570;50.962;5.340;2022-07-04T16:46:29;2.40;;;0.10;;
40847;SDS011;26570;50.962;5.340;2022-07-04T16:49:14;1.17;;;0.20;;
40847;SDS011;26570;50.962;5.340;2022-07-04T16:51:59;3.88;;;0.10;;
40847;SDS011;26570;50.962;5.340;2022-07-04T16:54:44;1.95;;;0.10;;
40847;SDS011;26570;50.962;5.340;2022-07-04T16:57:29;2.70;;;0.10;;
40847;SDS011;26570;50.962;5.340;2022-07-04T17:00:14;1.38;;;0.20;;
40847;SDS011;26570;50.962;5.340;2022-07-04T17:02:59;2.03;;;0.10;;